| Back to River Map | <<< Previous Forecast Point | | | Next Forecast Point >>> | Printer Version | Graph Version |  |
|
TRUCKEE RIVER - WADSWORTH (WADN2)
| Latitude: 39.63º N | Longitude: 119.28º W | Elevation: 4070 Feet | | Forecast Type: Official Location |
| Location: Washoe County in Nevada | Bulletin Group: Eastern Sierra | River Group: Eastern Sierra |
| Issuance Time: | May 04 2026 at 7:10 AM PDT | Next Issuance: | May 05 2026 at 9:00 AM PDT
| |
| Action/Monitor: 13.0 Feet | Minor Flood: 15.0 Feet | Moderate Flood: 17.0 Feet | Major Flood: 19.0 Feet |
# Tabular Observed and Forecast Hydrograph Information
#
# Location: Truckee River - Wadsworth (WADN2)
#
# File Generation Time: 05/04/2026 at 07:10 AM PDT
# Data Interval: 1 Hour
#
# Most Recent Date & Time of Maximum Observed: 05/03/2026 at 07:00 PM PDT
# Maximum Observed Stage: 6.18 Feet
# Maximum Observed Flow: 913 cfs
#
# Earliest Date & Time of Maximum Forecast: 05/05/2026 at 08:00 PM PDT
# Maximum Forecast Stage: 6.82 Feet
# Maximum Forecast Flow: 1294 cfs
#
# OBSERVED
#
# Date & Time (Local) Stage (Feet) Flow (cfs) Trend Observed Status
# ---------------------------------------------------------------------------------
04/29/2026 07 AM PDT 6.04 838 Normal
04/29/2026 08 AM PDT 6.05 843 + Normal
04/29/2026 09 AM PDT 6.05 843 0 Normal
04/29/2026 10 AM PDT 6.05 843 0 Normal
04/29/2026 11 AM PDT 6.05 843 0 Normal
04/29/2026 12 PM PDT 6.07 854 + Normal
04/29/2026 01 PM PDT 6.06 848 - Normal
04/29/2026 02 PM PDT 6.07 854 + Normal
04/29/2026 03 PM PDT 6.07 854 0 Normal
04/29/2026 04 PM PDT 6.04 838 - Normal
04/29/2026 05 PM PDT 6.05 843 + Normal
04/29/2026 06 PM PDT 6.04 838 - Normal
04/29/2026 07 PM PDT 6.05 843 + Normal
04/29/2026 08 PM PDT 6.04 838 - Normal
04/29/2026 09 PM PDT 6.04 838 0 Normal
04/29/2026 10 PM PDT 6.05 843 + Normal
04/29/2026 11 PM PDT 6.05 843 0 Normal
04/30/2026 12 AM PDT 6.05 843 0 Normal
04/30/2026 01 AM PDT 6.02 827 - Normal
04/30/2026 02 AM PDT 6.05 843 + Normal
04/30/2026 03 AM PDT 6.03 832 - Normal
04/30/2026 04 AM PDT 6.04 838 + Normal
04/30/2026 05 AM PDT 6.01 822 - Normal
04/30/2026 06 AM PDT 6.01 822 0 Normal
04/30/2026 07 AM PDT 6.02 827 + Normal
04/30/2026 08 AM PDT 6.02 827 0 Normal
04/30/2026 09 AM PDT 5.98 806 - Normal
04/30/2026 10 AM PDT 6.01 822 + Normal
04/30/2026 11 AM PDT 6.02 827 + Normal
04/30/2026 12 PM PDT 6.03 832 + Normal
04/30/2026 01 PM PDT 6.01 822 - Normal
04/30/2026 02 PM PDT 6.00 817 - Normal
04/30/2026 03 PM PDT 6.01 822 + Normal
04/30/2026 04 PM PDT 5.99 811 - Normal
04/30/2026 05 PM PDT 5.98 806 - Normal
04/30/2026 06 PM PDT 5.99 811 + Normal
04/30/2026 07 PM PDT 5.99 811 0 Normal
04/30/2026 08 PM PDT 6.01 822 + Normal
04/30/2026 09 PM PDT 6.00 817 - Normal
04/30/2026 10 PM PDT 5.99 811 - Normal
04/30/2026 11 PM PDT 6.01 822 + Normal
05/01/2026 12 AM PDT 5.98 806 - Normal
05/01/2026 01 AM PDT 6.00 817 + Normal
05/01/2026 02 AM PDT 5.98 806 - Normal
05/01/2026 03 AM PDT 5.98 806 0 Normal
05/01/2026 04 AM PDT 5.98 806 0 Normal
05/01/2026 05 AM PDT 5.95 791 - Normal
05/01/2026 06 AM PDT 5.97 801 + Normal
05/01/2026 07 AM PDT 5.99 811 + Normal
05/01/2026 08 AM PDT 6.03 832 + Normal
05/01/2026 09 AM PDT 6.03 832 0 Normal
05/01/2026 10 AM PDT 6.02 827 - Normal
05/01/2026 11 AM PDT 5.98 806 - Normal
05/01/2026 12 PM PDT 5.96 796 - Normal
05/01/2026 01 PM PDT 5.99 811 + Normal
05/01/2026 02 PM PDT 5.97 801 - Normal
05/01/2026 03 PM PDT 6.00 817 + Normal
05/01/2026 04 PM PDT 5.99 811 - Normal
05/01/2026 05 PM PDT 5.98 806 - Normal
05/01/2026 06 PM PDT 5.98 806 0 Normal
05/01/2026 07 PM PDT 5.96 796 - Normal
05/01/2026 08 PM PDT 5.98 806 + Normal
05/01/2026 09 PM PDT 6.01 822 + Normal
05/01/2026 10 PM PDT 5.99 811 - Normal
05/01/2026 11 PM PDT 5.99 811 0 Normal
05/02/2026 12 AM PDT 5.98 806 - Normal
05/02/2026 01 AM PDT 5.97 801 - Normal
05/02/2026 02 AM PDT 5.98 806 + Normal
05/02/2026 03 AM PDT 5.96 796 - Normal
05/02/2026 04 AM PDT 5.96 796 0 Normal
05/02/2026 05 AM PDT 5.96 796 0 Normal
05/02/2026 06 AM PDT 5.95 791 - Normal
05/02/2026 07 AM PDT 5.96 796 + Normal
05/02/2026 08 AM PDT 5.94 786 - Normal
05/02/2026 09 AM PDT 5.93 780 - Normal
05/02/2026 10 AM PDT 5.91 770 - Normal
05/02/2026 11 AM PDT 5.92 775 + Normal
05/02/2026 12 PM PDT 5.90 765 - Normal
05/02/2026 01 PM PDT 5.91 770 + Normal
05/02/2026 02 PM PDT 5.89 760 - Normal
05/02/2026 03 PM PDT 5.91 770 + Normal
05/02/2026 04 PM PDT 5.93 780 + Normal
05/02/2026 05 PM PDT 5.93 780 0 Normal
05/02/2026 06 PM PDT 5.93 780 0 Normal
05/02/2026 07 PM PDT 5.95 791 + Normal
05/02/2026 08 PM PDT 5.93 780 - Normal
05/02/2026 09 PM PDT 5.94 786 + Normal
05/02/2026 10 PM PDT 5.95 791 + Normal
05/02/2026 11 PM PDT 5.99 811 + Normal
05/03/2026 12 AM PDT 5.97 801 - Normal
05/03/2026 01 AM PDT 5.98 806 + Normal
05/03/2026 02 AM PDT 5.97 801 - Normal
05/03/2026 03 AM PDT 5.98 806 + Normal
05/03/2026 04 AM PDT 5.99 811 + Normal
05/03/2026 05 AM PDT 5.99 811 0 Normal
05/03/2026 06 AM PDT 6.00 817 + Normal
05/03/2026 07 AM PDT 6.01 822 + Normal
05/03/2026 08 AM PDT 6.04 838 + Normal
05/03/2026 09 AM PDT 6.05 843 + Normal
05/03/2026 10 AM PDT 6.03 832 - Normal
05/03/2026 11 AM PDT 6.04 838 + Normal
05/03/2026 12 PM PDT 6.04 838 0 Normal
05/03/2026 01 PM PDT 6.08 859 + Normal
05/03/2026 02 PM PDT 6.09 864 + Normal
05/03/2026 03 PM PDT 6.05 843 - Normal
05/03/2026 04 PM PDT 6.07 854 + Normal
05/03/2026 05 PM PDT 6.08 859 + Normal
05/03/2026 06 PM PDT 6.10 870 + Normal
05/03/2026 07 PM PDT 6.18 913 + Normal
05/03/2026 08 PM PDT 6.14 891 - Normal
05/03/2026 09 PM PDT 6.11 875 - Normal
05/03/2026 10 PM PDT 6.13 886 + Normal
05/03/2026 11 PM PDT 6.13 886 0 Normal
05/04/2026 12 AM PDT 6.13 886 0 Normal
05/04/2026 01 AM PDT 6.12 881 - Normal
05/04/2026 02 AM PDT 6.11 875 - Normal
05/04/2026 03 AM PDT 6.10 870 - Normal
05/04/2026 04 AM PDT 6.11 875 + Normal
05/04/2026 05 AM PDT 6.11 875 0 Normal
05/04/2026 06 AM PDT 6.11 875 0 Normal
05/04/2026 07 AM PDT 6.10 870 - Normal
#
# FORECAST
#
# Date & Time (Local) Stage (Feet) Flow (cfs) Trend Forecast Status
# ---------------------------------------------------------------------------------
05/04/2026 08 AM PDT 6.10 870 Normal
05/04/2026 09 AM PDT 6.09 864 - Normal
05/04/2026 10 AM PDT 6.08 859 - Normal
05/04/2026 11 AM PDT 6.08 859 0 Normal
05/04/2026 12 PM PDT 6.08 859 0 Normal
05/04/2026 01 PM PDT 6.08 859 0 Normal
05/04/2026 02 PM PDT 6.10 870 + Normal
05/04/2026 03 PM PDT 6.13 886 + Normal
05/04/2026 04 PM PDT 6.16 902 + Normal
05/04/2026 05 PM PDT 6.19 919 + Normal
05/04/2026 06 PM PDT 6.20 924 + Normal
05/04/2026 07 PM PDT 6.18 913 - Normal
05/04/2026 08 PM PDT 6.17 908 - Normal
05/04/2026 09 PM PDT 6.16 902 - Normal
05/04/2026 10 PM PDT 6.17 908 + Normal
05/04/2026 11 PM PDT 6.17 908 0 Normal
05/05/2026 12 AM PDT 6.19 919 + Normal
05/05/2026 01 AM PDT 6.21 930 + Normal
05/05/2026 02 AM PDT 6.26 958 + Normal
05/05/2026 03 AM PDT 6.36 1015 + Normal
05/05/2026 04 AM PDT 6.45 1067 + Normal
05/05/2026 05 AM PDT 6.50 1097 + Normal
05/05/2026 06 AM PDT 6.55 1127 + Normal
05/05/2026 07 AM PDT 6.59 1151 + Normal
05/05/2026 08 AM PDT 6.63 1175 + Normal
05/05/2026 09 AM PDT 6.66 1194 + Normal
05/05/2026 10 AM PDT 6.67 1200 + Normal
05/05/2026 11 AM PDT 6.65 1188 - Normal
05/05/2026 12 PM PDT 6.65 1188 0 Normal
05/05/2026 01 PM PDT 6.66 1194 + Normal
05/05/2026 02 PM PDT 6.70 1219 + Normal
05/05/2026 03 PM PDT 6.74 1244 + Normal
05/05/2026 04 PM PDT 6.76 1256 + Normal
05/05/2026 05 PM PDT 6.78 1269 + Normal
05/05/2026 06 PM PDT 6.79 1275 + Normal
05/05/2026 07 PM PDT 6.81 1288 + Normal
05/05/2026 08 PM PDT 6.82 1294 + Normal
05/05/2026 09 PM PDT 6.82 1294 0 Normal
05/05/2026 10 PM PDT 6.80 1282 - Normal
05/05/2026 11 PM PDT 6.77 1263 - Normal
05/06/2026 12 AM PDT 6.74 1244 - Normal
05/06/2026 01 AM PDT 6.70 1219 - Normal
05/06/2026 02 AM PDT 6.66 1194 - Normal
05/06/2026 03 AM PDT 6.62 1169 - Normal
05/06/2026 04 AM PDT 6.58 1145 - Normal
05/06/2026 05 AM PDT 6.54 1121 - Normal
05/06/2026 06 AM PDT 6.50 1097 - Normal
05/06/2026 07 AM PDT 6.46 1073 - Normal
05/06/2026 08 AM PDT 6.42 1049 - Normal
05/06/2026 09 AM PDT 6.38 1026 - Normal
05/06/2026 10 AM PDT 6.36 1015 - Normal
05/06/2026 11 AM PDT 6.33 997 - Normal
05/06/2026 12 PM PDT 6.30 980 - Normal
05/06/2026 01 PM PDT 6.28 969 - Normal
05/06/2026 02 PM PDT 6.26 958 - Normal
05/06/2026 03 PM PDT 6.25 952 - Normal
05/06/2026 04 PM PDT 6.24 947 - Normal
05/06/2026 05 PM PDT 6.23 941 - Normal
05/06/2026 06 PM PDT 6.22 935 - Normal
05/06/2026 07 PM PDT 6.22 935 0 Normal
05/06/2026 08 PM PDT 6.21 930 - Normal
05/06/2026 09 PM PDT 6.21 930 0 Normal
05/06/2026 10 PM PDT 6.20 924 - Normal
05/06/2026 11 PM PDT 6.19 919 - Normal
05/07/2026 12 AM PDT 6.19 919 0 Normal
05/07/2026 01 AM PDT 6.18 913 - Normal
05/07/2026 02 AM PDT 6.17 908 - Normal
05/07/2026 03 AM PDT 6.17 908 0 Normal
05/07/2026 04 AM PDT 6.16 902 - Normal
05/07/2026 05 AM PDT 6.15 897 - Normal
05/07/2026 06 AM PDT 6.14 891 - Normal
05/07/2026 07 AM PDT 6.13 886 - Normal
05/07/2026 08 AM PDT 6.13 886 0 Normal
05/07/2026 09 AM PDT 6.12 881 - Normal
05/07/2026 10 AM PDT 6.12 881 0 Normal
05/07/2026 11 AM PDT 6.11 875 - Normal
05/07/2026 12 PM PDT 6.11 875 0 Normal
05/07/2026 01 PM PDT 6.11 875 0 Normal
05/07/2026 02 PM PDT 6.11 875 0 Normal
05/07/2026 03 PM PDT 6.11 875 0 Normal
05/07/2026 04 PM PDT 6.11 875 0 Normal
05/07/2026 05 PM PDT 6.11 875 0 Normal
05/07/2026 06 PM PDT 6.11 875 0 Normal
05/07/2026 07 PM PDT 6.12 881 + Normal
05/07/2026 08 PM PDT 6.12 881 0 Normal
05/07/2026 09 PM PDT 6.12 881 0 Normal
05/07/2026 10 PM PDT 6.12 881 0 Normal
05/07/2026 11 PM PDT 6.12 881 0 Normal
05/08/2026 12 AM PDT 6.12 881 0 Normal
05/08/2026 01 AM PDT 6.12 881 0 Normal
05/08/2026 02 AM PDT 6.12 881 0 Normal
05/08/2026 03 AM PDT 6.11 875 - Normal
05/08/2026 04 AM PDT 6.11 875 0 Normal
05/08/2026 05 AM PDT 6.10 870 - Normal
05/08/2026 06 AM PDT 6.10 870 0 Normal
05/08/2026 07 AM PDT 6.09 864 - Normal
05/08/2026 08 AM PDT 6.09 864 0 Normal
05/08/2026 09 AM PDT 6.08 859 - Normal
05/08/2026 10 AM PDT 6.08 859 0 Normal
05/08/2026 11 AM PDT 6.08 859 0 Normal
05/08/2026 12 PM PDT 6.08 859 0 Normal
05/08/2026 01 PM PDT 6.07 854 - Normal
05/08/2026 02 PM PDT 6.07 854 0 Normal
05/08/2026 03 PM PDT 6.07 854 0 Normal
05/08/2026 04 PM PDT 6.08 859 + Normal
05/08/2026 05 PM PDT 6.08 859 0 Normal
05/08/2026 06 PM PDT 6.08 859 0 Normal
05/08/2026 07 PM PDT 6.08 859 0 Normal
05/08/2026 08 PM PDT 6.09 864 + Normal
05/08/2026 09 PM PDT 6.09 864 0 Normal
05/08/2026 10 PM PDT 6.09 864 0 Normal
05/08/2026 11 PM PDT 6.09 864 0 Normal
05/09/2026 12 AM PDT 6.09 864 0 Normal
05/09/2026 01 AM PDT 6.09 864 0 Normal
05/09/2026 02 AM PDT 6.08 859 - Normal
05/09/2026 03 AM PDT 6.08 859 0 Normal
05/09/2026 04 AM PDT 6.07 854 - Normal
05/09/2026 05 AM PDT 6.07 854 0 Normal
#
# NOTE 1: Stages are rounded to the nearest hundredth (.01) of a foot.
# NOTE 2: Flows are rounded to the nearest (1) cfs.
# NOTE 3: Trends are determined using hourly change in unrounded stage and flow.
# NOTE 4: Maximum Values are determined using unrounded stage and flow.
|